createdAt,value
2023-03-14T00:01:38.796Z,12.70
2023-03-14T00:04:07.305Z,12.70
2023-03-14T00:06:37.230Z,12.70
2023-03-14T00:09:05.674Z,12.80
2023-03-14T00:11:33.893Z,12.80
2023-03-14T00:14:02.449Z,12.80
2023-03-14T00:16:30.713Z,12.80
2023-03-14T00:19:00.681Z,12.90
2023-03-14T00:21:29.300Z,12.90
2023-03-14T00:23:58.876Z,12.90
2023-03-14T00:26:27.516Z,12.90
2023-03-14T00:28:56.216Z,12.80
2023-03-14T00:31:24.854Z,12.90
2023-03-14T00:33:55.121Z,12.80
2023-03-14T00:36:23.647Z,12.90
2023-03-14T00:38:53.764Z,12.80
2023-03-14T00:41:24.897Z,12.90
2023-03-14T00:43:53.759Z,12.80
2023-03-14T00:46:21.997Z,12.70
2023-03-14T00:48:50.168Z,12.60
2023-03-14T00:51:18.299Z,12.60
2023-03-14T00:53:46.590Z,12.60
2023-03-14T00:56:15.463Z,12.60
2023-03-14T00:58:45.289Z,12.60
2023-03-14T01:01:16.866Z,12.60
2023-03-14T01:03:45.278Z,12.50
2023-03-14T01:06:15.871Z,12.50
2023-03-14T01:08:44.242Z,12.50
2023-03-14T01:11:14.361Z,12.60
2023-03-14T01:13:43.937Z,12.60
2023-03-14T01:16:13.544Z,12.60
2023-03-14T01:18:44.613Z,12.50
2023-03-14T01:21:14.565Z,12.40
2023-03-14T01:23:43.261Z,12.40
2023-03-14T01:26:12.567Z,12.30
2023-03-14T01:28:41.470Z,12.30
2023-03-14T01:31:12.642Z,12.30
2023-03-14T01:33:42.090Z,12.30
2023-03-14T01:36:11.741Z,12.30
2023-03-14T01:38:40.970Z,12.20
2023-03-14T01:41:10.750Z,12.20
2023-03-14T01:43:38.978Z,12.20
2023-03-14T01:46:27.802Z,12.10
2023-03-14T01:49:07.597Z,12.10
2023-03-14T01:51:43.049Z,12.10
2023-03-14T01:54:17.060Z,12.10
2023-03-14T01:56:50.581Z,12.00
2023-03-14T01:59:19.005Z,12.00
2023-03-14T02:01:51.520Z,12.00
2023-03-14T02:04:21.332Z,12.00
2023-03-14T02:06:54.843Z,12.00
2023-03-14T02:09:23.614Z,11.90
2023-03-14T02:11:52.628Z,12.00
2023-03-14T02:14:33.795Z,12.00
2023-03-14T02:17:07.049Z,12.00
2023-03-14T02:19:50.428Z,12.10
2023-03-14T02:22:19.184Z,12.00
2023-03-14T02:24:52.953Z,12.00
2023-03-14T02:27:23.030Z,12.10
2023-03-14T02:29:54.613Z,12.10
2023-03-14T02:32:25.102Z,12.00
2023-03-14T02:34:56.937Z,12.00
2023-03-14T02:37:31.208Z,12.00
2023-03-14T02:39:59.426Z,12.10
2023-03-14T02:42:28.907Z,12.10
2023-03-14T02:45:02.847Z,12.10
2023-03-14T02:47:32.703Z,12.10
2023-03-14T02:50:05.002Z,12.10
2023-03-14T02:52:33.349Z,12.10
2023-03-14T02:55:01.581Z,12.00
2023-03-14T02:57:31.148Z,12.00
2023-03-14T03:00:00.873Z,12.00
2023-03-14T03:02:29.599Z,11.90
2023-03-14T03:04:57.717Z,12.00
2023-03-14T03:07:25.953Z,12.10
2023-03-14T03:09:54.162Z,12.20
2023-03-14T03:12:22.413Z,12.30
2023-03-14T03:14:52.120Z,12.40
2023-03-14T03:17:20.390Z,12.40
2023-03-14T03:19:48.553Z,12.30
2023-03-14T03:22:16.968Z,12.40
2023-03-14T03:24:45.564Z,12.50
2023-03-14T03:27:13.754Z,12.50
2023-03-14T03:29:42.048Z,12.50
2023-03-14T03:32:11.633Z,12.40
2023-03-14T03:34:39.842Z,12.40
2023-03-14T03:37:08.081Z,12.40
2023-03-14T03:39:36.295Z,12.40
2023-03-14T03:42:04.521Z,12.40
2023-03-14T03:44:32.725Z,12.40
2023-03-14T03:47:01.083Z,12.40
2023-03-14T03:49:32.781Z,12.40
2023-03-14T03:52:01.291Z,12.50
2023-03-14T03:54:30.025Z,12.50
2023-03-14T03:56:58.219Z,12.60
2023-03-14T03:59:26.614Z,12.70
2023-03-14T04:01:55.022Z,12.60
2023-03-14T04:04:23.275Z,12.70
2023-03-14T04:06:52.895Z,12.70
2023-03-14T04:09:21.036Z,12.80
2023-03-14T04:11:49.235Z,13.00
2023-03-14T04:14:17.998Z,13.20
2023-03-14T04:16:46.181Z,13.40
2023-03-14T04:19:14.364Z,13.50
2023-03-14T04:21:45.839Z,13.70
2023-03-14T04:24:15.788Z,13.80
2023-03-14T04:26:44.039Z,13.90
2023-03-14T04:29:13.313Z,13.90
2023-03-14T04:31:41.873Z,14.00
2023-03-14T04:34:10.055Z,14.00
2023-03-14T04:36:39.970Z,14.10
2023-03-14T04:39:08.987Z,14.10
2023-03-14T04:41:38.637Z,14.00
2023-03-14T04:44:07.015Z,13.80
2023-03-14T04:46:35.218Z,13.70
2023-03-14T04:49:03.383Z,13.70
2023-03-14T04:51:31.683Z,13.70
2023-03-14T04:53:59.902Z,13.60
2023-03-14T04:56:28.621Z,13.40
2023-03-14T04:58:58.319Z,13.30
2023-03-14T05:01:26.610Z,13.20
2023-03-14T05:03:54.852Z,13.10
2023-03-14T05:06:23.238Z,13.10
2023-03-14T05:08:51.364Z,13.00
2023-03-14T05:11:19.691Z,12.90
2023-03-14T05:13:47.841Z,12.80
2023-03-14T05:16:17.450Z,12.80
2023-03-14T05:18:45.681Z,12.80
2023-03-14T05:21:13.825Z,12.80
2023-03-14T05:23:42.130Z,12.80
2023-03-14T05:26:10.334Z,12.80
2023-03-14T05:28:38.519Z,12.80
2023-03-14T05:31:09.796Z,12.80
2023-03-14T05:33:39.497Z,12.80
2023-03-14T05:36:08.628Z,12.80
2023-03-14T05:38:36.840Z,12.80
2023-03-14T05:41:05.465Z,12.90
2023-03-14T05:43:33.798Z,12.90
2023-03-14T05:46:01.976Z,12.90
2023-03-14T05:48:30.112Z,12.90
2023-03-14T05:51:00.635Z,12.90
2023-03-14T05:53:30.100Z,12.90
2023-03-14T05:55:59.023Z,12.90
2023-03-14T05:58:27.300Z,12.90
2023-03-14T06:00:55.425Z,13.00
2023-03-14T06:03:23.787Z,13.00
2023-03-14T06:05:52.465Z,13.00
2023-03-14T06:08:22.186Z,13.00
2023-03-14T06:10:50.327Z,13.00
2023-03-14T06:13:18.565Z,13.00
2023-03-14T06:15:47.028Z,13.00
2023-03-14T06:18:16.020Z,13.00
2023-03-14T06:20:44.202Z,13.10
2023-03-14T06:23:12.409Z,13.10
2023-03-14T06:25:41.908Z,13.00
2023-03-14T06:28:10.034Z,13.10
2023-03-14T06:30:38.225Z,13.10
2023-03-14T06:33:06.400Z,13.10
2023-03-14T06:35:34.625Z,13.10
2023-03-14T06:38:02.746Z,13.20
2023-03-14T06:40:30.947Z,13.20
2023-03-14T06:43:00.558Z,13.20
2023-03-14T06:45:28.705Z,13.30
2023-03-14T06:47:56.919Z,13.30
2023-03-14T06:50:25.188Z,13.30
2023-03-14T06:52:53.711Z,13.40
2023-03-14T06:55:22.730Z,13.40
2023-03-14T06:57:51.243Z,13.50
2023-03-14T07:00:21.700Z,13.50
2023-03-14T07:02:50.072Z,13.50
2023-03-14T07:05:18.302Z,13.60
2023-03-14T07:07:46.581Z,13.60
2023-03-14T07:10:14.871Z,13.60
2023-03-14T07:12:43.100Z,13.70
2023-03-14T07:15:18.609Z,13.70
2023-03-14T07:17:49.582Z,13.70
2023-03-14T07:20:18.363Z,13.70
2023-03-14T07:22:48.933Z,13.70
2023-03-14T07:25:17.192Z,13.70
2023-03-14T07:27:46.253Z,13.80
2023-03-14T07:30:15.220Z,13.80
2023-03-14T07:32:43.472Z,13.70
2023-03-14T07:35:13.262Z,13.80
2023-03-14T07:37:41.497Z,13.80
2023-03-14T07:40:11.759Z,13.80
2023-03-14T07:42:39.975Z,13.80
2023-03-14T07:45:09.656Z,13.80
2023-03-14T07:47:37.936Z,13.80
2023-03-14T07:50:07.749Z,13.80
2023-03-14T07:52:37.351Z,13.80
2023-03-14T07:55:06.949Z,13.90
2023-03-14T07:57:35.226Z,13.90
2023-03-14T08:00:04.205Z,13.80
2023-03-14T08:02:32.370Z,13.80
2023-03-14T08:05:00.461Z,13.80
2023-03-14T08:07:28.612Z,13.80
2023-03-14T08:09:58.405Z,13.80
2023-03-14T08:12:27.518Z,13.80
2023-03-14T08:14:55.718Z,13.70
2023-03-14T08:17:23.934Z,13.70
2023-03-14T08:19:52.117Z,13.70
2023-03-14T08:22:20.480Z,13.70
2023-03-14T08:24:48.758Z,13.70
2023-03-14T08:27:19.422Z,13.60
2023-03-14T08:29:47.543Z,13.60
2023-03-14T08:32:16.456Z,13.60
2023-03-14T08:34:45.231Z,13.50
2023-03-14T08:37:25.885Z,13.50
2023-03-14T08:39:55.414Z,13.50
2023-03-14T08:42:26.007Z,13.50
2023-03-14T08:44:54.650Z,13.50
2023-03-14T08:47:23.808Z,13.50
2023-03-14T08:49:52.013Z,13.50
2023-03-14T08:52:20.389Z,13.50
2023-03-14T08:54:49.063Z,13.50
2023-03-14T08:57:17.294Z,13.50
2023-03-14T08:59:46.855Z,13.50
2023-03-14T09:02:15.604Z,13.50
2023-03-14T09:04:43.807Z,13.50
2023-03-14T09:07:12.147Z,13.50
2023-03-14T09:09:40.544Z,13.50
2023-03-14T09:12:08.847Z,13.40
2023-03-14T09:14:37.220Z,13.40
2023-03-14T09:17:07.168Z,13.40
2023-03-14T09:19:35.884Z,13.40
2023-03-14T09:22:04.182Z,13.40
2023-03-14T09:24:32.826Z,13.30
2023-03-14T09:27:01.022Z,13.40
2023-03-14T09:29:29.368Z,13.40
2023-03-14T09:31:58.311Z,13.50
2023-03-14T09:34:27.879Z,13.50
2023-03-14T09:36:56.125Z,13.50
2023-03-14T09:39:24.369Z,13.50
2023-03-14T09:41:55.463Z,13.60
2023-03-14T09:44:27.722Z,13.60
2023-03-14T09:46:59.676Z,13.70
2023-03-14T09:49:32.587Z,13.70
2023-03-14T09:52:04.419Z,13.70
2023-03-14T09:54:36.901Z,13.80
2023-03-14T09:57:06.116Z,13.80
2023-03-14T09:59:35.845Z,13.80
2023-03-14T10:02:13.828Z,13.80
2023-03-14T10:04:46.212Z,13.90
2023-03-14T10:07:17.034Z,13.90
2023-03-14T10:09:47.261Z,14.00
2023-03-14T10:12:15.980Z,14.00
2023-03-14T10:14:50.463Z,14.00
2023-03-14T10:17:20.719Z,14.00
2023-03-14T10:19:59.098Z,14.10
2023-03-14T10:22:31.553Z,14.10
2023-03-14T10:25:04.010Z,14.00
2023-03-14T10:27:35.114Z,14.00
2023-03-14T10:30:05.954Z,14.00
2023-03-14T10:32:37.545Z,14.00
2023-03-14T10:35:11.127Z,14.00
2023-03-14T10:37:52.018Z,14.00
2023-03-14T10:40:30.694Z,14.00
2023-03-14T10:43:00.356Z,14.00
2023-03-14T10:45:34.444Z,13.90
2023-03-14T10:48:18.477Z,13.90
2023-03-14T10:50:56.980Z,13.90
2023-03-14T10:53:27.700Z,13.80
2023-03-14T10:55:59.178Z,13.90
2023-03-14T10:58:30.918Z,13.90
2023-03-14T11:01:11.686Z,14.00
2023-03-14T11:03:45.022Z,14.00
2023-03-14T11:06:20.430Z,14.00
2023-03-14T11:08:56.144Z,14.00
2023-03-14T11:11:26.432Z,14.00
2023-03-14T11:14:07.682Z,14.10
2023-03-14T11:16:44.459Z,14.10
2023-03-14T11:19:27.660Z,14.20
2023-03-14T11:22:06.709Z,14.20
2023-03-14T11:24:47.215Z,14.10
2023-03-14T11:27:20.492Z,14.10
2023-03-14T11:29:56.824Z,14.10
2023-03-14T11:32:39.308Z,14.00
2023-03-14T11:35:18.284Z,13.90
2023-03-14T11:37:53.998Z,13.90
2023-03-14T11:40:24.625Z,13.90
2023-03-14T11:43:02.925Z,13.90
2023-03-14T11:45:36.680Z,13.90
2023-03-14T11:48:22.484Z,13.80
2023-03-14T11:50:54.757Z,13.90
2023-03-14T11:53:38.583Z,13.90
2023-03-14T11:56:13.384Z,14.00
2023-03-14T11:58:53.872Z,14.00
2023-03-14T12:01:26.180Z,14.00
2023-03-14T12:04:03.075Z,14.00
2023-03-14T12:06:35.916Z,14.00
2023-03-14T12:09:07.968Z,14.00
2023-03-14T12:11:41.215Z,14.00
2023-03-14T12:14:25.442Z,14.10
2023-03-14T12:16:58.286Z,14.10
2023-03-14T12:19:44.574Z,14.00
2023-03-14T12:22:29.553Z,14.10
2023-03-14T12:25:03.884Z,14.10
2023-03-14T12:27:47.928Z,14.10
2023-03-14T12:30:34.916Z,14.10
2023-03-14T12:33:29.190Z,14.10
2023-03-14T12:36:02.234Z,14.10
2023-03-14T12:38:43.945Z,14.10
2023-03-14T12:41:19.504Z,14.10
2023-03-14T12:43:48.005Z,14.10
2023-03-14T12:46:25.621Z,14.10
2023-03-14T12:48:57.939Z,14.10
2023-03-14T12:51:36.953Z,14.20
2023-03-14T12:54:34.250Z,14.20
2023-03-14T12:57:17.115Z,14.30
2023-03-14T12:59:52.726Z,14.30
2023-03-14T13:02:26.020Z,14.40
2023-03-14T13:05:03.547Z,14.40
2023-03-14T13:07:35.069Z,14.50
2023-03-14T13:10:19.041Z,14.60
2023-03-14T13:12:52.508Z,14.60
2023-03-14T13:15:25.065Z,14.60
2023-03-14T13:17:55.218Z,14.60
2023-03-14T13:20:30.464Z,14.60
2023-03-14T13:22:58.731Z,14.60
2023-03-14T13:25:33.010Z,14.70
2023-03-14T13:28:03.936Z,14.70
2023-03-14T13:30:41.981Z,14.70
2023-03-14T13:33:15.769Z,14.70
2023-03-14T13:35:46.029Z,14.70
2023-03-14T13:38:21.941Z,14.70
2023-03-14T13:40:51.700Z,14.80
2023-03-14T13:43:27.613Z,14.80
2023-03-14T13:45:58.220Z,14.80
2023-03-14T13:48:30.438Z,14.80
2023-03-14T13:51:03.311Z,14.80
2023-03-14T13:53:31.847Z,14.90
2023-03-14T13:56:04.111Z,14.80
2023-03-14T13:58:34.511Z,14.90
2023-03-14T14:01:13.193Z,14.90
2023-03-14T14:03:43.512Z,14.90
2023-03-14T14:06:21.720Z,14.90
2023-03-14T14:08:50.096Z,15.00
2023-03-14T14:11:32.681Z,15.00
2023-03-14T14:14:06.967Z,15.10
2023-03-14T14:16:35.339Z,15.10
2023-03-14T14:19:05.458Z,15.20
2023-03-14T14:21:34.831Z,15.20
2023-03-14T14:24:03.365Z,15.30
2023-03-14T14:26:31.589Z,15.20
2023-03-14T14:29:07.907Z,15.20
2023-03-14T14:31:36.296Z,15.30
2023-03-14T14:34:06.017Z,15.20
2023-03-14T14:36:40.054Z,15.20
2023-03-14T14:39:14.102Z,15.30
2023-03-14T14:41:44.288Z,15.30
2023-03-14T14:44:18.475Z,15.30
2023-03-14T14:46:48.683Z,15.30
2023-03-14T14:49:21.974Z,15.30
2023-03-14T14:51:52.143Z,15.20
2023-03-14T14:54:21.508Z,15.20
2023-03-14T14:56:51.580Z,15.10
2023-03-14T14:59:27.989Z,15.20
2023-03-14T15:02:00.626Z,15.20
2023-03-14T15:04:31.922Z,15.20
2023-03-14T15:07:00.216Z,15.20
2023-03-14T15:09:28.567Z,15.20
2023-03-14T15:11:56.706Z,15.00
2023-03-14T15:14:26.364Z,15.00
2023-03-14T15:16:54.579Z,15.10
2023-03-14T15:19:25.850Z,15.10
2023-03-14T15:21:55.107Z,15.20
2023-03-14T15:24:24.011Z,15.20
2023-03-14T15:26:53.634Z,15.20
2023-03-14T15:29:21.890Z,15.20
2023-03-14T15:31:51.556Z,15.20
2023-03-14T15:34:19.843Z,15.10
2023-03-14T15:36:48.293Z,15.10
2023-03-14T15:39:16.507Z,15.10
2023-03-14T15:41:44.848Z,15.10
2023-03-14T15:44:12.993Z,15.10
2023-03-14T15:46:41.245Z,15.10
2023-03-14T15:49:11.746Z,15.10
2023-03-14T15:51:39.931Z,15.10
2023-03-14T15:54:08.455Z,15.10
2023-03-14T15:56:37.856Z,15.00
2023-03-14T15:59:08.239Z,15.00
2023-03-14T16:01:36.601Z,15.00
2023-03-14T16:04:05.058Z,14.90
2023-03-14T16:06:36.469Z,14.90
2023-03-14T16:09:05.330Z,15.00
2023-03-14T16:11:33.517Z,14.90
2023-03-14T16:14:01.774Z,14.90
2023-03-14T16:16:29.963Z,14.90
2023-03-14T16:18:58.316Z,14.80
2023-03-14T16:21:26.614Z,14.80
2023-03-14T16:23:56.231Z,14.90
2023-03-14T16:26:24.447Z,14.80
2023-03-14T16:28:52.641Z,14.80
2023-03-14T16:31:23.789Z,14.60
2023-03-14T16:33:52.040Z,14.50
2023-03-14T16:36:20.816Z,14.40
2023-03-14T16:38:49.590Z,14.30
2023-03-14T16:41:21.439Z,14.20
2023-03-14T16:43:52.610Z,14.20
2023-03-14T16:46:22.605Z,14.20
2023-03-14T16:48:51.125Z,14.20
2023-03-14T16:51:19.578Z,14.30
2023-03-14T16:53:48.072Z,14.30
2023-03-14T16:56:18.448Z,14.40
2023-03-14T16:58:46.978Z,14.40
2023-03-14T17:01:18.340Z,14.40
2023-03-14T17:03:48.537Z,14.30
2023-03-14T17:06:18.609Z,14.30
2023-03-14T17:08:46.733Z,14.20
2023-03-14T17:11:14.989Z,14.20
2023-03-14T17:13:44.658Z,14.20
2023-03-14T17:16:13.683Z,14.30
2023-03-14T17:18:42.439Z,14.30
2023-03-14T17:21:10.671Z,14.30
2023-03-14T17:23:38.879Z,14.30
2023-03-14T17:26:07.417Z,14.30
2023-03-14T17:28:36.102Z,14.30
2023-03-14T17:31:10.307Z,14.30
2023-03-14T17:33:38.567Z,14.30
2023-03-14T17:36:08.173Z,14.30
2023-03-14T17:38:36.658Z,14.30
2023-03-14T17:41:05.232Z,14.30
2023-03-14T17:43:34.053Z,14.20
2023-03-14T17:46:06.255Z,14.20
2023-03-14T17:48:36.056Z,14.20
2023-03-14T17:51:04.642Z,14.20
2023-03-14T17:53:33.070Z,14.20
2023-03-14T17:56:01.248Z,14.20
2023-03-14T17:58:29.495Z,14.30
2023-03-14T18:00:57.821Z,14.30
2023-03-14T18:03:26.241Z,14.30
2023-03-14T18:05:56.674Z,14.30
2023-03-14T18:08:25.010Z,14.30
2023-03-14T18:10:55.309Z,14.20
2023-03-14T18:13:23.602Z,14.20
2023-03-14T18:15:52.992Z,14.20
2023-03-14T18:18:21.330Z,14.20
2023-03-14T18:20:54.457Z,14.20
2023-03-14T18:23:24.688Z,14.20
2023-03-14T18:25:52.958Z,14.20
2023-03-14T18:28:23.204Z,14.20
2023-03-14T18:30:55.347Z,14.20
2023-03-14T18:33:24.071Z,14.20
2023-03-14T18:35:52.838Z,14.20
2023-03-14T18:38:21.506Z,14.20
2023-03-14T18:40:54.176Z,14.10
2023-03-14T18:43:22.570Z,14.20
2023-03-14T18:45:52.647Z,14.20
2023-03-14T18:48:20.969Z,14.20
2023-03-14T18:50:49.337Z,14.10
2023-03-14T18:53:17.616Z,14.10
2023-03-14T18:55:48.949Z,14.10
2023-03-14T18:58:23.808Z,14.10
2023-03-14T19:00:52.108Z,14.10
2023-03-14T19:03:20.463Z,14.10
2023-03-14T19:05:48.739Z,14.10
2023-03-14T19:08:19.732Z,14.10
2023-03-14T19:10:48.015Z,14.10
2023-03-14T19:13:16.368Z,14.00
2023-03-14T19:15:46.251Z,14.00
2023-03-14T19:18:14.529Z,14.00
2023-03-14T19:20:44.815Z,14.00
2023-03-14T19:23:15.577Z,14.00
2023-03-14T19:25:45.234Z,14.00
2023-03-14T19:28:15.761Z,14.00
2023-03-14T19:30:45.602Z,13.90
2023-03-14T19:33:14.702Z,14.00
2023-03-14T19:35:43.846Z,13.90
2023-03-14T19:38:13.231Z,13.90
2023-03-14T19:40:43.158Z,13.90
2023-03-14T19:43:15.063Z,13.90
2023-03-14T19:45:47.800Z,13.90
2023-03-14T19:48:16.837Z,13.80
2023-03-14T19:50:45.139Z,13.80
2023-03-14T19:53:16.102Z,13.70
2023-03-14T19:55:47.529Z,13.70
2023-03-14T19:58:15.731Z,13.60
2023-03-14T20:00:47.010Z,13.70
2023-03-14T20:03:15.496Z,13.60
2023-03-14T20:05:44.787Z,13.70
2023-03-14T20:08:13.446Z,13.60
2023-03-14T20:10:41.827Z,13.60
2023-03-14T20:13:20.736Z,13.50
2023-03-14T20:15:53.110Z,13.40
2023-03-14T20:18:23.293Z,13.40
2023-03-14T20:20:52.172Z,13.40
2023-03-14T20:23:20.372Z,13.40
2023-03-14T20:25:55.030Z,13.40
2023-03-14T20:28:23.456Z,13.40
2023-03-14T20:30:53.503Z,13.40
2023-03-14T20:33:22.157Z,13.40
2023-03-14T20:35:55.195Z,13.40
2023-03-14T20:38:24.231Z,13.50
2023-03-14T20:40:52.403Z,13.50
2023-03-14T20:43:20.625Z,13.50
2023-03-14T20:45:54.945Z,13.50
2023-03-14T20:48:23.390Z,13.50
2023-03-14T20:50:51.589Z,13.50
2023-03-14T20:53:20.846Z,13.50
2023-03-14T20:55:49.264Z,13.50
2023-03-14T20:58:17.756Z,13.60
2023-03-14T21:00:48.402Z,13.60
2023-03-14T21:03:19.372Z,13.60
2023-03-14T21:05:49.274Z,13.50
2023-03-14T21:08:20.139Z,13.50
2023-03-14T21:10:49.017Z,13.50
2023-03-14T21:13:17.379Z,13.60
2023-03-14T21:15:45.902Z,13.60
2023-03-14T21:18:14.245Z,13.50
2023-03-14T21:20:44.191Z,13.50
2023-03-14T21:23:14.629Z,13.50
2023-03-14T21:25:44.742Z,13.50
2023-03-14T21:28:13.083Z,13.50
2023-03-14T21:30:41.647Z,13.50
2023-03-14T21:33:09.800Z,13.50
2023-03-14T21:35:38.026Z,13.50
2023-03-14T21:38:07.626Z,13.50
2023-03-14T21:40:36.678Z,13.50
2023-03-14T21:43:05.163Z,13.40
2023-03-14T21:45:35.757Z,13.40
2023-03-14T21:48:03.894Z,13.40
2023-03-14T21:50:32.050Z,13.30
2023-03-14T21:53:00.289Z,13.20
2023-03-14T21:55:29.768Z,13.20
2023-03-14T21:57:58.633Z,13.20
2023-03-14T22:00:27.392Z,13.20
2023-03-14T22:03:12.781Z,13.20
2023-03-14T22:05:44.107Z,13.20
2023-03-14T22:08:12.684Z,13.20
2023-03-14T22:10:45.930Z,13.20
2023-03-14T22:13:15.452Z,13.20
2023-03-14T22:15:45.646Z,13.20
2023-03-14T22:18:14.193Z,13.20
2023-03-14T22:20:43.016Z,13.20
2023-03-14T22:23:12.067Z,13.20
2023-03-14T22:25:41.835Z,13.20
2023-03-14T22:28:12.077Z,13.20
2023-03-14T22:30:40.350Z,13.10
2023-03-14T22:33:08.775Z,13.00
2023-03-14T22:35:36.937Z,13.10
2023-03-14T22:38:05.093Z,13.00
2023-03-14T22:40:33.306Z,13.00
2023-03-14T22:43:01.482Z,13.00
2023-03-14T22:45:31.109Z,13.10
2023-03-14T22:47:59.573Z,13.10
2023-03-14T22:50:27.833Z,13.00
2023-03-14T22:52:58.280Z,13.00
2023-03-14T22:55:26.502Z,13.00
2023-03-14T22:57:55.157Z,13.00
2023-03-14T23:00:23.780Z,13.00
2023-03-14T23:02:53.446Z,12.90
2023-03-14T23:05:22.044Z,12.90
2023-03-14T23:07:50.261Z,12.80
2023-03-14T23:10:18.856Z,12.70
2023-03-14T23:12:47.109Z,12.70
2023-03-14T23:15:16.875Z,12.60
2023-03-14T23:17:45.537Z,12.60
2023-03-14T23:20:15.187Z,12.60
2023-03-14T23:22:43.438Z,12.60
2023-03-14T23:25:13.177Z,12.60
2023-03-14T23:27:46.388Z,12.50
2023-03-14T23:30:15.988Z,12.50
2023-03-14T23:32:44.539Z,12.50
2023-03-14T23:35:15.068Z,12.40
2023-03-14T23:37:43.359Z,12.40
2023-03-14T23:40:12.800Z,12.30
2023-03-14T23:42:41.147Z,12.40
2023-03-14T23:45:09.788Z,12.40
2023-03-14T23:47:37.999Z,12.30
2023-03-14T23:50:06.825Z,12.30
2023-03-14T23:52:36.273Z,12.30
2023-03-14T23:55:04.758Z,12.30
2023-03-14T23:57:32.921Z,12.30
